createdAt,value
2023-05-09T00:00:31.716Z,13.00
2023-05-09T00:02:58.420Z,12.98
2023-05-09T00:05:25.506Z,13.17
2023-05-09T00:07:52.250Z,12.76
2023-05-09T00:10:18.838Z,12.94
2023-05-09T00:12:45.620Z,12.33
2023-05-09T00:15:13.074Z,11.87
2023-05-09T00:17:40.092Z,12.45
2023-05-09T00:20:12.488Z,11.89
2023-05-09T00:22:42.956Z,11.67
2023-05-09T00:25:10.998Z,12.54
2023-05-09T00:27:38.018Z,12.27
2023-05-09T00:30:05.577Z,11.97
2023-05-09T00:32:33.537Z,11.65
2023-05-09T00:35:00.288Z,11.54
2023-05-09T00:37:27.175Z,11.70
2023-05-09T00:39:53.760Z,12.27
2023-05-09T00:42:20.414Z,11.87
2023-05-09T00:44:46.955Z,11.83
2023-05-09T00:47:13.531Z,11.43
2023-05-09T00:49:40.256Z,10.47
2023-05-09T00:52:07.041Z,11.65
2023-05-09T00:54:33.703Z,11.81
2023-05-09T00:57:00.667Z,11.65
2023-05-09T00:59:27.536Z,11.90
2023-05-09T01:01:54.260Z,11.54
2023-05-09T01:04:20.985Z,12.06
2023-05-09T01:07:10.913Z,12.01
2023-05-09T01:10:03.035Z,12.20
2023-05-09T01:12:47.631Z,12.35
2023-05-09T01:15:22.972Z,12.49
2023-05-09T01:18:06.774Z,11.65
2023-05-09T01:20:39.642Z,12.38
2023-05-09T01:23:08.915Z,12.56
2023-05-09T01:25:41.442Z,12.52
2023-05-09T01:28:14.514Z,12.33
2023-05-09T01:30:45.663Z,12.40
2023-05-09T01:33:18.108Z,12.43
2023-05-09T01:35:51.705Z,12.22
2023-05-09T01:38:22.120Z,12.28
2023-05-09T01:40:53.163Z,12.40
2023-05-09T01:43:21.749Z,12.48
2023-05-09T01:45:51.384Z,12.34
2023-05-09T01:48:18.494Z,12.42
2023-05-09T01:50:46.544Z,12.67
2023-05-09T01:53:14.075Z,12.74
2023-05-09T01:55:41.723Z,12.31
2023-05-09T01:58:09.510Z,12.52
2023-05-09T02:00:37.196Z,12.52
2023-05-09T02:03:04.534Z,12.15
2023-05-09T02:05:32.594Z,11.98
2023-05-09T02:07:59.525Z,11.99
2023-05-09T02:10:29.462Z,12.23
2023-05-09T02:12:56.976Z,11.30
2023-05-09T02:15:24.555Z,11.07
2023-05-09T02:17:51.471Z,11.84
2023-05-09T02:20:18.245Z,11.79
2023-05-09T02:22:45.474Z,11.92
2023-05-09T02:25:16.688Z,11.50
2023-05-09T02:27:46.155Z,11.13
2023-05-09T02:30:20.821Z,11.45
2023-05-09T02:32:50.825Z,11.46
2023-05-09T02:35:18.421Z,11.16
2023-05-09T02:37:46.200Z,11.30
2023-05-09T02:40:14.524Z,11.39
2023-05-09T02:42:41.272Z,11.39
2023-05-09T02:45:10.564Z,10.91
2023-05-09T02:47:38.167Z,10.73
2023-05-09T02:50:05.846Z,11.46
2023-05-09T02:52:32.467Z,11.30
2023-05-09T02:54:59.065Z,11.71
2023-05-09T02:57:25.789Z,11.69
2023-05-09T02:59:52.427Z,11.45
2023-05-09T03:02:19.176Z,12.08
2023-05-09T03:04:46.035Z,11.39
2023-05-09T03:07:12.683Z,12.20
2023-05-09T03:09:41.073Z,12.28
2023-05-09T03:12:08.035Z,11.82
2023-05-09T03:14:34.667Z,11.79
2023-05-09T03:17:01.248Z,11.99
2023-05-09T03:19:27.966Z,11.17
2023-05-09T03:21:54.547Z,10.98
2023-05-09T03:24:21.959Z,11.59
2023-05-09T03:26:48.551Z,11.69
2023-05-09T03:29:15.142Z,12.07
2023-05-09T03:31:41.846Z,12.23
2023-05-09T03:34:13.091Z,11.91
2023-05-09T03:36:39.637Z,11.96
2023-05-09T03:39:06.312Z,11.98
2023-05-09T03:41:32.978Z,12.27
2023-05-09T03:43:59.571Z,12.08
2023-05-09T03:46:26.233Z,12.13
2023-05-09T03:48:52.949Z,11.12
2023-05-09T03:51:20.744Z,11.54
2023-05-09T03:53:47.748Z,11.91
2023-05-09T03:56:14.830Z,12.24
2023-05-09T03:58:41.453Z,12.39
2023-05-09T04:01:08.306Z,12.30
2023-05-09T04:03:35.110Z,12.60
2023-05-09T04:06:01.856Z,12.71
2023-05-09T04:08:28.563Z,12.72
2023-05-09T04:10:55.160Z,12.73
2023-05-09T04:13:21.764Z,12.89
2023-05-09T04:15:48.394Z,12.95
2023-05-09T04:18:14.989Z,12.97
2023-05-09T04:20:41.550Z,12.81
2023-05-09T04:23:08.191Z,13.14
2023-05-09T04:25:35.545Z,13.11
2023-05-09T04:28:02.425Z,12.79
2023-05-09T04:30:29.182Z,13.20
2023-05-09T04:32:56.094Z,13.30
2023-05-09T04:35:23.088Z,13.35
2023-05-09T04:37:49.937Z,13.36
2023-05-09T04:40:16.900Z,13.31
2023-05-09T04:42:43.614Z,13.03
2023-05-09T04:45:11.802Z,13.10
2023-05-09T04:47:38.566Z,13.15
2023-05-09T04:50:05.998Z,13.17
2023-05-09T04:52:32.614Z,13.09
2023-05-09T04:54:59.237Z,13.17
2023-05-09T04:57:25.923Z,12.96
2023-05-09T04:59:53.084Z,12.53
2023-05-09T05:02:21.275Z,12.07
2023-05-09T05:04:48.097Z,11.77
2023-05-09T05:07:14.754Z,11.67
2023-05-09T05:09:41.423Z,11.81
2023-05-09T05:12:09.738Z,11.83
2023-05-09T05:14:36.855Z,11.30
2023-05-09T05:17:03.519Z,11.72
2023-05-09T05:19:30.372Z,11.64
2023-05-09T05:21:56.966Z,11.74
2023-05-09T05:24:23.618Z,11.61
2023-05-09T05:26:50.289Z,11.33
2023-05-09T05:29:17.664Z,11.51
2023-05-09T05:31:44.354Z,11.29
2023-05-09T05:34:10.994Z,11.43
2023-05-09T05:36:37.592Z,9.43
2023-05-09T05:39:04.521Z,11.03
2023-05-09T05:41:31.429Z,10.94
2023-05-09T05:43:58.090Z,9.56
2023-05-09T05:46:24.774Z,11.08
2023-05-09T05:48:51.445Z,11.36
2023-05-09T05:51:18.088Z,11.50
2023-05-09T05:53:44.763Z,9.40
2023-05-09T05:56:12.607Z,10.04
2023-05-09T05:58:39.195Z,11.84
2023-05-09T06:01:05.814Z,12.02
2023-05-09T06:03:32.527Z,12.01
2023-05-09T06:05:59.681Z,12.09
2023-05-09T06:08:26.765Z,11.49
2023-05-09T06:10:53.359Z,12.48
2023-05-09T06:13:19.970Z,12.29
2023-05-09T06:15:46.811Z,12.86
2023-05-09T06:18:13.673Z,12.29
2023-05-09T06:20:40.303Z,11.62
2023-05-09T06:23:06.951Z,11.78
2023-05-09T06:25:33.551Z,11.55
2023-05-09T06:28:00.209Z,12.22
2023-05-09T06:30:27.279Z,11.15
2023-05-09T06:32:55.347Z,11.52
2023-05-09T06:35:22.333Z,11.70
2023-05-09T06:37:49.494Z,11.72
2023-05-09T06:40:17.093Z,12.11
2023-05-09T06:42:44.364Z,10.81
2023-05-09T06:45:11.636Z,11.59
2023-05-09T06:47:38.278Z,11.86
2023-05-09T06:50:05.391Z,11.56
2023-05-09T06:52:32.003Z,11.96
2023-05-09T06:54:58.577Z,11.67
2023-05-09T06:57:25.254Z,12.31
2023-05-09T06:59:51.821Z,12.53
2023-05-09T07:02:18.584Z,12.85
2023-05-09T07:04:45.377Z,12.13
2023-05-09T07:07:12.016Z,12.78
2023-05-09T07:09:38.632Z,12.02
2023-05-09T07:12:05.636Z,11.66
2023-05-09T07:14:32.268Z,11.66
2023-05-09T07:17:13.692Z,11.23
2023-05-09T07:19:45.330Z,12.09
2023-05-09T07:22:13.575Z,10.79
2023-05-09T07:24:40.350Z,12.19
2023-05-09T07:27:07.013Z,13.10
2023-05-09T07:29:33.611Z,13.23
2023-05-09T07:32:00.375Z,12.50
2023-05-09T07:34:27.400Z,12.11
2023-05-09T07:36:54.046Z,12.16
2023-05-09T07:39:20.838Z,13.01
2023-05-09T07:41:48.707Z,13.21
2023-05-09T07:44:16.035Z,11.36
2023-05-09T07:46:43.036Z,13.34
2023-05-09T07:49:09.806Z,12.91
2023-05-09T07:51:36.771Z,13.36
2023-05-09T07:54:03.525Z,12.15
2023-05-09T07:56:30.226Z,13.46
2023-05-09T07:58:57.100Z,12.56
2023-05-09T08:01:23.756Z,12.51
2023-05-09T08:03:50.400Z,13.25
2023-05-09T08:06:17.091Z,13.46
2023-05-09T08:08:43.715Z,13.19
2023-05-09T08:11:10.312Z,12.73
2023-05-09T08:13:37.174Z,12.45
2023-05-09T08:16:03.996Z,12.89
2023-05-09T08:18:30.748Z,12.80
2023-05-09T08:20:59.569Z,12.64
2023-05-09T08:23:26.696Z,12.41
2023-05-09T08:25:54.629Z,12.88
2023-05-09T08:28:24.323Z,12.22
2023-05-09T08:30:51.864Z,12.08
2023-05-09T08:33:18.667Z,12.04
2023-05-09T08:35:45.627Z,13.04
2023-05-09T08:38:12.225Z,13.00
2023-05-09T08:40:38.895Z,12.51
2023-05-09T08:43:07.262Z,12.22
2023-05-09T08:45:40.515Z,13.26
2023-05-09T08:48:07.810Z,13.08
2023-05-09T08:50:35.688Z,13.14
2023-05-09T08:53:02.584Z,12.96
2023-05-09T08:55:29.772Z,13.33
2023-05-09T08:57:58.201Z,13.18
2023-05-09T09:00:26.381Z,13.32
2023-05-09T09:02:54.177Z,13.39
2023-05-09T09:05:40.099Z,12.90
2023-05-09T09:08:08.593Z,12.91
2023-05-09T09:10:35.668Z,13.11
2023-05-09T09:13:05.011Z,12.53
2023-05-09T09:15:36.435Z,12.56
2023-05-09T09:18:09.835Z,12.84
2023-05-09T09:20:40.472Z,13.36
2023-05-09T09:23:10.611Z,12.61
2023-05-09T09:25:37.740Z,12.89
2023-05-09T09:28:05.112Z,13.42
2023-05-09T09:30:31.728Z,12.89
2023-05-09T09:33:01.280Z,13.28
2023-05-09T09:35:27.912Z,13.63
2023-05-09T09:38:00.787Z,13.62
2023-05-09T09:40:27.371Z,13.76
2023-05-09T09:42:54.058Z,12.74
2023-05-09T09:45:20.825Z,13.59
2023-05-09T09:47:48.669Z,13.03
2023-05-09T09:50:20.231Z,13.72
2023-05-09T09:52:55.662Z,13.67
2023-05-09T09:55:24.297Z,12.75
2023-05-09T09:57:51.621Z,13.53
2023-05-09T10:00:24.895Z,13.76
2023-05-09T10:02:53.354Z,13.78
2023-05-09T10:05:26.860Z,13.99
2023-05-09T10:08:00.429Z,13.94
2023-05-09T10:10:28.863Z,13.47
2023-05-09T10:13:00.238Z,12.63
2023-05-09T10:15:35.666Z,13.49
2023-05-09T10:18:11.151Z,12.94
2023-05-09T10:20:40.840Z,13.81
2023-05-09T10:23:08.282Z,13.55
2023-05-09T10:26:23.525Z,13.76
2023-05-09T10:28:54.842Z,14.04
2023-05-09T10:31:29.555Z,14.17
2023-05-09T10:33:56.583Z,13.88
2023-05-09T10:36:26.419Z,13.61
2023-05-09T10:38:56.449Z,14.41
2023-05-09T10:41:24.020Z,13.94
2023-05-09T10:43:51.148Z,14.16
2023-05-09T10:46:18.414Z,13.71
2023-05-09T10:48:45.694Z,14.01
2023-05-09T10:51:13.239Z,13.97
2023-05-09T10:53:45.732Z,14.02
2023-05-09T10:56:32.361Z,13.99
2023-05-09T10:59:00.328Z,13.97
2023-05-09T11:01:32.912Z,14.13
2023-05-09T11:04:00.530Z,14.34
2023-05-09T11:06:53.983Z,14.38
2023-05-09T11:09:42.700Z,14.27
2023-05-09T11:12:13.815Z,13.75
2023-05-09T11:14:46.219Z,14.00
2023-05-09T11:17:22.040Z,14.14
2023-05-09T11:19:49.138Z,14.28
2023-05-09T11:22:17.010Z,13.96
2023-05-09T11:24:48.370Z,13.73
2023-05-09T11:27:25.213Z,13.66
2023-05-09T11:29:54.393Z,13.11
2023-05-09T11:32:27.314Z,13.00
2023-05-09T11:35:10.506Z,11.33
2023-05-09T11:37:50.800Z,12.35
2023-05-09T11:40:19.309Z,11.94
2023-05-09T11:42:56.198Z,12.73
2023-05-09T11:45:27.453Z,12.70
2023-05-09T11:47:54.602Z,12.77
2023-05-09T11:50:21.726Z,12.83
2023-05-09T11:52:49.295Z,12.84
2023-05-09T11:55:19.093Z,12.92
2023-05-09T11:57:49.207Z,13.04
2023-05-09T12:00:17.604Z,13.09
2023-05-09T12:02:46.096Z,13.39
2023-05-09T12:05:15.350Z,13.09
2023-05-09T12:07:42.416Z,13.54
2023-05-09T12:10:15.603Z,13.42
2023-05-09T12:12:50.192Z,13.84
2023-05-09T12:15:17.850Z,13.85
2023-05-09T12:17:47.093Z,12.28
2023-05-09T12:20:15.193Z,13.44
2023-05-09T12:22:45.039Z,13.22
2023-05-09T12:25:12.222Z,13.60
2023-05-09T12:27:40.822Z,13.60
2023-05-09T12:30:10.946Z,11.26
2023-05-09T12:32:40.362Z,13.16
2023-05-09T12:35:10.376Z,13.51
2023-05-09T12:37:37.798Z,13.34
2023-05-09T12:40:13.134Z,13.02
2023-05-09T12:42:44.316Z,13.12
2023-05-09T12:45:11.853Z,13.65
2023-05-09T12:47:39.276Z,14.18
2023-05-09T12:50:07.033Z,13.94
2023-05-09T12:52:34.958Z,13.93
2023-05-09T12:55:12.934Z,14.52
2023-05-09T12:57:41.011Z,13.74
2023-05-09T13:00:09.888Z,13.74
2023-05-09T13:02:42.839Z,12.48
2023-05-09T13:05:15.953Z,14.84
2023-05-09T13:07:44.818Z,14.94
2023-05-09T13:10:21.292Z,13.53
2023-05-09T13:12:49.200Z,14.97
2023-05-09T13:15:17.354Z,15.20
2023-05-09T13:17:44.360Z,14.84
2023-05-09T13:20:11.135Z,15.11
2023-05-09T13:22:37.917Z,14.64
2023-05-09T13:25:05.316Z,14.59
2023-05-09T13:27:33.288Z,15.30
2023-05-09T13:30:00.470Z,15.11
2023-05-09T13:32:27.346Z,15.02
2023-05-09T13:34:54.021Z,14.96
2023-05-09T13:37:21.713Z,12.56
2023-05-09T13:39:48.892Z,13.11
2023-05-09T13:42:17.324Z,11.52
2023-05-09T13:44:45.768Z,13.18
2023-05-09T13:47:12.471Z,12.49
2023-05-09T13:49:39.163Z,12.81
2023-05-09T13:52:06.763Z,13.43
2023-05-09T13:54:35.244Z,12.79
2023-05-09T13:57:03.781Z,13.75
2023-05-09T13:59:34.440Z,13.70
2023-05-09T14:02:01.896Z,13.69
2023-05-09T14:04:32.068Z,13.91
2023-05-09T14:06:59.985Z,13.72
2023-05-09T14:09:28.815Z,13.84
2023-05-09T14:11:56.715Z,13.35
2023-05-09T14:14:24.741Z,12.89
2023-05-09T14:16:51.707Z,12.89
2023-05-09T14:19:19.807Z,12.51
2023-05-09T14:21:49.356Z,12.46
2023-05-09T14:24:16.437Z,12.18
2023-05-09T14:26:43.885Z,11.28
2023-05-09T14:29:10.965Z,12.19
2023-05-09T14:31:37.925Z,12.17
2023-05-09T14:34:05.349Z,12.28
2023-05-09T14:36:34.706Z,12.41
2023-05-09T14:39:01.536Z,12.64
2023-05-09T14:41:28.199Z,12.58
2023-05-09T14:43:54.760Z,12.27
2023-05-09T14:46:21.434Z,12.00
2023-05-09T14:48:48.077Z,12.07
2023-05-09T14:51:14.735Z,11.48
2023-05-09T14:53:42.086Z,12.11
2023-05-09T14:56:13.165Z,12.10
2023-05-09T14:58:39.799Z,12.37
2023-05-09T15:01:06.587Z,12.21
2023-05-09T15:03:33.267Z,12.41
2023-05-09T15:05:59.926Z,12.61
2023-05-09T15:08:27.055Z,12.39
2023-05-09T15:10:53.755Z,12.27
2023-05-09T15:13:20.869Z,11.77
2023-05-09T15:15:47.892Z,12.46
2023-05-09T15:18:16.582Z,12.11
2023-05-09T15:20:43.638Z,12.09
2023-05-09T15:23:12.237Z,12.30
2023-05-09T15:25:41.760Z,11.72
2023-05-09T15:28:08.398Z,10.79
2023-05-09T15:30:38.259Z,11.65
2023-05-09T15:33:05.326Z,11.51
2023-05-09T15:35:32.019Z,10.97
2023-05-09T15:37:58.780Z,11.68
2023-05-09T15:40:25.485Z,11.60
2023-05-09T15:42:52.070Z,11.81
2023-05-09T15:45:18.652Z,11.31
2023-05-09T15:47:45.285Z,11.11
2023-05-09T15:50:12.638Z,11.37
2023-05-09T15:52:39.246Z,10.86
2023-05-09T15:55:06.979Z,11.62
2023-05-09T15:57:33.652Z,11.60
2023-05-09T16:00:00.297Z,10.96
2023-05-09T16:02:28.558Z,11.50
2023-05-09T16:04:55.363Z,11.43
2023-05-09T16:07:22.353Z,11.07
2023-05-09T16:09:49.148Z,10.94
2023-05-09T16:12:15.826Z,10.96
2023-05-09T16:14:42.517Z,11.16
2023-05-09T16:17:09.124Z,11.39
2023-05-09T16:19:36.464Z,11.60
2023-05-09T16:22:03.150Z,11.70
2023-05-09T16:24:31.704Z,11.67
2023-05-09T16:26:58.380Z,11.89
2023-05-09T16:29:25.046Z,11.94
2023-05-09T16:31:51.733Z,11.71
2023-05-09T16:34:18.369Z,11.96
2023-05-09T16:36:46.446Z,12.00
2023-05-09T16:39:13.307Z,12.03
2023-05-09T16:41:39.887Z,11.32
2023-05-09T16:44:06.507Z,11.24
2023-05-09T16:46:33.144Z,11.43
2023-05-09T16:48:59.697Z,11.23
2023-05-09T16:51:26.306Z,11.24
2023-05-09T16:53:53.073Z,11.38
2023-05-09T16:56:19.679Z,11.79
2023-05-09T16:58:46.330Z,11.19
2023-05-09T17:01:13.315Z,11.41
2023-05-09T17:03:40.081Z,11.68
2023-05-09T17:06:07.288Z,11.99
2023-05-09T17:08:34.334Z,12.03
2023-05-09T17:11:00.964Z,11.99
2023-05-09T17:13:28.290Z,12.07
2023-05-09T17:15:55.108Z,12.01
2023-05-09T17:18:33.367Z,12.05
2023-05-09T17:21:04.076Z,12.08
2023-05-09T17:23:30.659Z,12.02
2023-05-09T17:25:57.231Z,11.93
2023-05-09T17:28:23.852Z,11.86
2023-05-09T17:30:50.701Z,11.79
2023-05-09T17:33:17.444Z,11.71
2023-05-09T17:35:44.116Z,12.09
2023-05-09T17:38:11.077Z,11.95
2023-05-09T17:40:38.186Z,11.86
2023-05-09T17:43:04.873Z,11.99
2023-05-09T17:45:31.580Z,11.18
2023-05-09T17:48:00.372Z,10.97
2023-05-09T17:50:29.526Z,11.74
2023-05-09T17:52:57.029Z,11.28
2023-05-09T17:55:23.783Z,11.11
2023-05-09T17:57:50.382Z,10.98
2023-05-09T18:00:17.476Z,11.05
2023-05-09T18:02:45.344Z,11.04
2023-05-09T18:05:12.068Z,10.85
2023-05-09T18:07:40.586Z,10.92
2023-05-09T18:10:08.893Z,11.22
2023-05-09T18:12:37.233Z,11.35
2023-05-09T18:15:04.938Z,11.62
2023-05-09T18:17:31.691Z,11.54
2023-05-09T18:19:58.431Z,11.74
2023-05-09T18:22:25.069Z,11.73
2023-05-09T18:24:52.913Z,11.97
2023-05-09T18:27:19.503Z,12.04
2023-05-09T18:29:47.580Z,12.07
2023-05-09T18:32:14.409Z,12.01
2023-05-09T18:34:41.806Z,12.15
2023-05-09T18:37:11.772Z,12.06
2023-05-09T18:39:38.427Z,12.03
2023-05-09T18:42:06.463Z,12.01
2023-05-09T18:44:33.124Z,12.00
2023-05-09T18:46:59.798Z,12.08
2023-05-09T18:49:26.794Z,11.87
2023-05-09T18:51:53.793Z,11.63
2023-05-09T18:54:20.821Z,12.03
2023-05-09T18:56:47.433Z,12.07
2023-05-09T18:59:16.389Z,11.66
2023-05-09T19:01:44.102Z,11.90
2023-05-09T19:04:10.912Z,11.90
2023-05-09T19:06:37.759Z,11.82
2023-05-09T19:09:04.697Z,11.81
2023-05-09T19:11:31.664Z,11.75
2023-05-09T19:13:58.329Z,11.76
2023-05-09T19:16:26.720Z,11.82
2023-05-09T19:18:57.741Z,11.79
2023-05-09T19:21:25.593Z,11.79
2023-05-09T19:23:52.874Z,11.77
2023-05-09T19:26:20.074Z,11.47
2023-05-09T19:28:47.178Z,11.90
2023-05-09T19:31:15.083Z,11.28
2023-05-09T19:33:45.375Z,12.07
2023-05-09T19:36:14.719Z,11.89
2023-05-09T19:38:41.692Z,11.90
2023-05-09T19:41:08.585Z,11.95
2023-05-09T19:43:35.427Z,12.05
2023-05-09T19:46:02.206Z,11.88
2023-05-09T19:48:29.094Z,11.94
2023-05-09T19:50:58.654Z,11.97
2023-05-09T19:53:25.686Z,11.81
2023-05-09T19:55:52.724Z,11.80
2023-05-09T19:58:19.889Z,11.31
2023-05-09T20:00:46.856Z,11.80
2023-05-09T20:03:13.952Z,11.67
2023-05-09T20:05:40.845Z,11.70
2023-05-09T20:08:07.441Z,11.69
2023-05-09T20:10:34.293Z,11.57
2023-05-09T20:13:01.227Z,11.49
2023-05-09T20:15:28.104Z,11.32
2023-05-09T20:17:54.843Z,11.01
2023-05-09T20:20:21.516Z,11.41
2023-05-09T20:22:48.156Z,11.36
2023-05-09T20:25:15.409Z,11.43
2023-05-09T20:27:42.153Z,10.85
2023-05-09T20:30:09.340Z,11.19
2023-05-09T20:32:35.992Z,11.01
2023-05-09T20:35:02.886Z,11.19
2023-05-09T20:37:29.610Z,10.96
2023-05-09T20:39:56.113Z,11.11
2023-05-09T20:42:23.381Z,11.06
2023-05-09T20:44:51.542Z,10.97
2023-05-09T20:47:18.442Z,11.04
2023-05-09T20:49:45.061Z,11.05
2023-05-09T20:52:11.733Z,10.71
2023-05-09T20:54:38.493Z,11.14
2023-05-09T20:57:05.086Z,11.11
2023-05-09T20:59:31.727Z,11.02
2023-05-09T21:01:58.330Z,11.14
2023-05-09T21:04:25.123Z,10.88
2023-05-09T21:06:51.691Z,11.08
2023-05-09T21:09:18.904Z,11.15
2023-05-09T21:11:46.120Z,11.15
2023-05-09T21:14:12.838Z,10.62
2023-05-09T21:16:39.498Z,11.06
2023-05-09T21:19:06.632Z,11.11
2023-05-09T21:21:33.229Z,11.11
2023-05-09T21:24:04.211Z,11.20
2023-05-09T21:26:30.930Z,11.21
2023-05-09T21:28:57.513Z,11.25
2023-05-09T21:31:24.175Z,11.31
2023-05-09T21:33:50.864Z,11.34
2023-05-09T21:36:17.525Z,11.31
2023-05-09T21:38:44.133Z,10.59
2023-05-09T21:41:10.717Z,11.32
2023-05-09T21:43:37.739Z,11.35
2023-05-09T21:46:05.987Z,11.30
2023-05-09T21:48:32.836Z,11.43
2023-05-09T21:51:03.813Z,11.43
2023-05-09T21:53:30.403Z,11.40
2023-05-09T21:55:57.011Z,11.25
2023-05-09T21:58:23.611Z,11.43
2023-05-09T22:00:50.273Z,11.53
2023-05-09T22:03:17.009Z,11.62
2023-05-09T22:05:43.750Z,11.70
2023-05-09T22:08:10.544Z,11.72
2023-05-09T22:10:37.810Z,11.74
2023-05-09T22:13:04.591Z,11.77
2023-05-09T22:15:31.376Z,11.48
2023-05-09T22:17:58.152Z,11.41
2023-05-09T22:20:24.916Z,11.49
2023-05-09T22:22:51.506Z,11.78
2023-05-09T22:25:18.200Z,11.60
2023-05-09T22:27:44.937Z,11.25
2023-05-09T22:30:12.490Z,11.62
2023-05-09T22:32:39.819Z,11.62
2023-05-09T22:35:06.988Z,11.14
2023-05-09T22:37:33.666Z,11.60
2023-05-09T22:40:03.360Z,11.48
2023-05-09T22:42:30.045Z,11.24
2023-05-09T22:44:56.720Z,11.15
2023-05-09T22:47:23.409Z,11.31
2023-05-09T22:49:50.528Z,11.22
2023-05-09T22:52:17.508Z,10.89
2023-05-09T22:54:44.334Z,11.13
2023-05-09T22:57:11.463Z,11.27
2023-05-09T22:59:38.351Z,11.23
2023-05-09T23:02:05.385Z,11.15
2023-05-09T23:04:32.043Z,11.17
2023-05-09T23:06:58.599Z,11.24
2023-05-09T23:09:25.204Z,11.36
2023-05-09T23:11:51.963Z,11.38
2023-05-09T23:14:18.684Z,11.41
2023-05-09T23:16:45.291Z,11.36
2023-05-09T23:19:11.927Z,11.47
2023-05-09T23:21:38.627Z,11.45
2023-05-09T23:24:05.450Z,11.21
2023-05-09T23:26:32.365Z,10.85
2023-05-09T23:28:58.948Z,11.15
2023-05-09T23:31:25.589Z,11.20
2023-05-09T23:33:52.430Z,10.99
2023-05-09T23:36:19.035Z,11.10
2023-05-09T23:38:45.627Z,11.28
2023-05-09T23:41:12.761Z,10.59
2023-05-09T23:43:39.535Z,11.17
2023-05-09T23:46:06.248Z,11.28
2023-05-09T23:48:32.822Z,11.28
2023-05-09T23:50:59.397Z,10.97
2023-05-09T23:53:26.340Z,10.99
2023-05-09T23:55:52.955Z,10.55
2023-05-09T23:58:19.563Z,11.11
